首页
METAR-TAF:

METAR-TAF

机场 :

洛杉磯國際機場

洛杉矶, 加利福尼亚州, 美国

纬度: 33-56-17N, 经度: 118-23-20W, 海拔: 38米

当前天气观测

该预报发布于42分钟前的20:53 UTC
风速10节,风向西转西南
温度 24°C
湿度 13%
气压 1017 hPa
能見度: 16.1公里
多云层高于23000英尺
多云层高于30000英尺

METAR: KLAX 152053Z 24010KT 10SM BKN230 BKN300 24/M06 A3002 RMK AO2 SLP166 T02441061 58025

时间: 13:35 (21:35 UTC)

预报

该预报发布于32分钟前的21:03 UTC
预报有效从15日的 21点(UTC)到 16日的 24点(UTC)
风速10节,风向西
能見度: 10公里
散云层高于25000英尺
从 16日的 0300点(UTC)
风速3节,风向多变
能見度: 10公里
散云层高于25000英尺
从 16日的 1500点(UTC)
风速3节,风向多变
能見度: 0.8公里
层高于200英尺
从 16日的 2000点(UTC)
风速10节,风向西
能見度: 10公里
散云层高于300英尺
附近有雾

TAF: KLAX 152103Z 1521/1624 26010KT P6SM SCT250 FM160300 VRB03KT P6SM SCT250 FM161500 VRB03KT 1/2SM FG VV002 FM162000 26010KT P6SM VCFG SCT003

超过4000个机场的气象观测和天气预报(METAR&TAF报告)。

可查询的气象台以黄色和红色小点在地图上表示。

将鼠标移到小点上方,可查看气象台名称。

然后点击查看天气观测和预报。

如需切换地图:点击带黑十字的绿色按钮放大地图;点击带横线的绿色按钮缩小地图;或者点击绿色箭头查看邻近地区的地图。


METAR-TAF: